Time;durP1;ratioP1;P1;durP2;ratioP2;P2;SDS_P1;SDS_P2;PMS_P1;PMS_P2;Temp;Humidity;BMP_temperature;BMP_pressure;BME280_temperature;BME280_humidity;BME280_pressure;Samples;Min_cycle;Max_cycle;Signal;HPM_P1;HPM_P2
2022/07/21 00:02:18;;;;;;;13.32;11.40;;;;;;;;;;5085431;28;20217;-62
2022/07/21 00:04:45;;;;;;;15.57;11.30;;;;;;;;;;5085913;28;20207;-62
2022/07/21 00:07:12;;;;;;;12.90;10.77;;;;;;;;;;5086141;28;20202;-61
2022/07/21 00:09:39;;;;;;;12.15;10.65;;;;;;;;;;5085280;28;20633;-60
2022/07/21 00:12:07;;;;;;;11.52;10.32;;;;;;;;;;5085859;28;20210;-63
2022/07/21 00:14:34;;;;;;;12.05;10.15;;;;;;;;;;5085602;28;20731;-61
2022/07/21 00:17:01;;;;;;;12.20;10.85;;;;;;;;;;5085173;28;20233;-61
2022/07/21 00:19:29;;;;;;;13.57;10.88;;;;;;;;;;5085037;28;20831;-62
2022/07/21 00:21:56;;;;;;;13.13;10.20;;;;;;;;;;5102716;28;20205;-62
2022/07/21 00:24:23;;;;;;;16.55;10.50;;;;;;;;;;5085001;28;20244;-62
2022/07/21 00:26:50;;;;;;;11.23;10.10;;;;;;;;;;5085380;28;20198;-62
2022/07/21 00:29:17;;;;;;;12.13;10.65;;;;;;;;;;5084948;28;20237;-62
2022/07/21 00:31:44;;;;;;;13.32;11.10;;;;;;;;;;5085610;28;20210;-62
2022/07/21 00:34:11;;;;;;;11.98;9.70;;;;;;;;;;5084811;28;20198;-62
2022/07/21 00:36:39;;;;;;;13.25;10.35;;;;;;;;;;5085324;28;20234;-62
2022/07/21 00:39:06;;;;;;;11.45;10.15;;;;;;;;;;5084770;28;20645;-62
2022/07/21 00:41:34;;;;;;;10.82;9.25;;;;;;;;;;5085629;28;20249;-62
2022/07/21 00:44:01;;;;;;;10.15;9.15;;;;;;;;;;5084803;28;21013;-62
2022/07/21 00:46:28;;;;;;;14.15;10.80;;;;;;;;;;5085445;28;20210;-62
2022/07/21 00:48:55;;;;;;;11.65;10.45;;;;;;;;;;5084912;28;20259;-62
2022/07/21 00:51:22;;;;;;;12.85;10.63;;;;;;;;;;5084719;28;20225;-62
2022/07/21 00:53:50;;;;;;;9.95;8.95;;;;;;;;;;5085154;28;20722;-62
2022/07/21 00:56:17;;;;;;;13.77;10.35;;;;;;;;;;5084583;28;20291;-62
2022/07/21 00:58:44;;;;;;;10.82;9.80;;;;;;;;;;5084507;28;20214;-62
2022/07/21 01:01:11;;;;;;;12.85;11.00;;;;;;;;;;5084729;28;20210;-62
2022/07/21 01:03:38;;;;;;;10.75;9.75;;;;;;;;;;5085153;28;20300;-62
2022/07/21 01:06:06;;;;;;;10.98;9.70;;;;;;;;;;5085219;28;20214;-62
2022/07/21 01:08:33;;;;;;;13.80;9.40;;;;;;;;;;5085420;28;20302;-62
2022/07/21 01:11:01;;;;;;;12.07;9.63;;;;;;;;;;5084688;28;20203;-62
2022/07/21 01:13:29;;;;;;;9.98;8.82;;;;;;;;;;5085699;28;20207;-62
2022/07/21 01:15:56;;;;;;;12.40;8.80;;;;;;;;;;5085280;28;20234;-61
2022/07/21 01:18:23;;;;;;;15.25;10.70;;;;;;;;;;5085417;28;20206;-61
2022/07/21 01:20:53;;;;;;;10.52;9.43;;;;;;;;;;5076943;28;20209;-61
2022/07/21 01:23:21;;;;;;;13.30;10.02;;;;;;;;;;5088261;28;20659;-62
2022/07/21 01:25:49;;;;;;;12.30;9.52;;;;;;;;;;5089150;28;20209;-62
2022/07/21 01:28:16;;;;;;;12.50;8.80;;;;;;;;;;5088406;28;20628;-62
2022/07/21 01:30:43;;;;;;;10.07;8.52;;;;;;;;;;5088618;28;20210;-62
2022/07/21 01:33:10;;;;;;;11.10;8.55;;;;;;;;;;5088476;28;20804;-62
2022/07/21 01:35:37;;;;;;;9.30;8.50;;;;;;;;;;5088630;28;20214;-62
2022/07/21 01:41:28;;;;;;;9.27;8.15;;;;;;;;;;5088587;28;20295;-62
2022/07/21 01:43:42;;;;;;;9.48;8.32;;;;;;;;;;5085513;28;20829;-62
2022/07/21 01:46:11;;;;;;;11.10;8.48;;;;;;;;;;5093811;28;20214;-62
2022/07/21 01:48:41;;;;;;;13.10;9.30;;;;;;;;;;5087102;28;20209;-61
2022/07/21 01:51:08;;;;;;;12.57;9.18;;;;;;;;;;5091189;28;20770;-61
2022/07/21 01:53:36;;;;;;;10.32;9.32;;;;;;;;;;5103604;28;20234;-62
2022/07/21 01:56:04;;;;;;;9.52;8.50;;;;;;;;;;5105897;28;20789;-62
2022/07/21 01:58:31;;;;;;;9.07;8.20;;;;;;;;;;5090306;28;20214;-62
2022/07/21 02:00:58;;;;;;;10.75;8.82;;;;;;;;;;5091800;28;20212;-62
2022/07/21 02:03:25;;;;;;;9.90;8.90;;;;;;;;;;5092658;28;20211;-62
2022/07/21 02:05:52;;;;;;;11.70;8.43;;;;;;;;;;5091691;28;20672;-62
2022/07/21 02:08:19;;;;;;;9.45;8.40;;;;;;;;;;5095462;28;20644;-62
2022/07/21 02:10:46;;;;;;;11.55;8.30;;;;;;;;;;5093498;28;20210;-62
2022/07/21 02:13:15;;;;;;;10.20;8.00;;;;;;;;;;5092610;28;20206;-62
2022/07/21 02:15:42;;;;;;;9.00;7.82;;;;;;;;;;5091909;28;20207;-62
2022/07/21 02:18:09;;;;;;;8.73;7.93;;;;;;;;;;5092296;28;20283;-62
2022/07/21 02:20:36;;;;;;;8.55;6.88;;;;;;;;;;5091658;28;20205;-61
2022/07/21 02:23:03;;;;;;;6.68;6.07;;;;;;;;;;5091756;28;20206;-61
2022/07/21 02:25:30;;;;;;;5.82;5.43;;;;;;;;;;5091927;28;20672;-62
2022/07/21 02:27:57;;;;;;;5.15;4.85;;;;;;;;;;5092064;28;20263;-61
2022/07/21 02:30:26;;;;;;;5.60;5.15;;;;;;;;;;5092007;28;20623;-62
2022/07/21 02:32:53;;;;;;;5.30;4.95;;;;;;;;;;5089689;28;20727;-62
2022/07/21 02:35:20;;;;;;;5.50;4.57;;;;;;;;;;5072370;28;20214;-62
2022/07/21 02:37:47;;;;;;;5.10;4.53;;;;;;;;;;5091353;28;20222;-62
2022/07/21 02:40:14;;;;;;;5.25;4.90;;;;;;;;;;5090346;28;20374;-62
2022/07/21 02:42:41;;;;;;;5.18;4.80;;;;;;;;;;5091420;28;20210;-62
2022/07/21 02:45:09;;;;;;;5.55;5.05;;;;;;;;;;5091702;28;20206;-62
2022/07/21 02:47:49;;;;;;;5.43;4.93;;;;;;;;;;5091503;28;20679;-62
2022/07/21 02:50:17;;;;;;;5.60;4.57;;;;;;;;;;5091031;28;20210;-62
2022/07/21 02:52:44;;;;;;;4.60;4.30;;;;;;;;;;5091510;28;20621;-62
2022/07/21 02:55:11;;;;;;;4.43;4.22;;;;;;;;;;5091011;28;20253;-62
2022/07/21 02:57:38;;;;;;;6.65;5.15;;;;;;;;;;5091517;28;20640;-62
2022/07/21 03:00:06;;;;;;;8.68;5.32;;;;;;;;;;5090586;28;20206;-62
2022/07/21 03:02:33;;;;;;;5.97;4.30;;;;;;;;;;5090849;28;20208;-61
2022/07/21 03:05:02;;;;;;;5.30;4.95;;;;;;;;;;5090701;28;20210;-62
2022/07/21 03:07:29;;;;;;;5.30;4.93;;;;;;;;;;5090457;28;20194;-62
2022/07/21 03:09:56;;;;;;;6.43;5.82;;;;;;;;;;5089585;28;20660;-62
2022/07/21 03:12:23;;;;;;;6.28;5.68;;;;;;;;;;5090520;28;20236;-62
2022/07/21 03:14:50;;;;;;;7.75;5.28;;;;;;;;;;5090257;28;20206;-62
2022/07/21 03:17:17;;;;;;;7.68;5.13;;;;;;;;;;5090445;28;20237;-62
2022/07/21 03:19:44;;;;;;;8.18;5.10;;;;;;;;;;5089889;28;20937;-62
2022/07/21 03:22:12;;;;;;;7.85;5.50;;;;;;;;;;5089989;28;20530;-62
2022/07/21 03:24:39;;;;;;;5.40;4.80;;;;;;;;;;5089763;28;20222;-62
2022/07/21 03:27:06;;;;;;;6.53;4.75;;;;;;;;;;5090092;28;20204;-62
2022/07/21 03:29:33;;;;;;;5.85;4.85;;;;;;;;;;5089504;28;20259;-62
2022/07/21 03:32:00;;;;;;;4.55;4.25;;;;;;;;;;5089960;28;20210;-62
2022/07/21 03:34:27;;;;;;;4.75;4.32;;;;;;;;;;5089974;28;20325;-62
2022/07/21 03:36:54;;;;;;;4.80;4.43;;;;;;;;;;5089800;28;20287;-62
2022/07/21 03:39:23;;;;;;;4.90;4.50;;;;;;;;;;5089379;28;21868;-62
2022/07/21 03:41:50;;;;;;;10.55;4.90;;;;;;;;;;5089594;28;20279;-62
2022/07/21 03:44:17;;;;;;;4.90;4.50;;;;;;;;;;5088811;28;20210;-62
2022/07/21 03:46:44;;;;;;;4.72;4.43;;;;;;;;;;5089883;28;20252;-62
2022/07/21 03:49:11;;;;;;;5.97;3.92;;;;;;;;;;5089538;28;20780;-62
2022/07/21 03:51:38;;;;;;;4.40;4.10;;;;;;;;;;5089666;28;20207;-62
2022/07/21 03:54:05;;;;;;;4.75;4.22;;;;;;;;;;5089688;28;20210;-62
2022/07/21 03:56:33;;;;;;;4.45;4.15;;;;;;;;;;5089393;28;20238;-62
2022/07/21 03:59:00;;;;;;;4.63;4.32;;;;;;;;;;5089698;28;20221;-62
2022/07/21 04:01:27;;;;;;;4.18;3.97;;;;;;;;;;5088185;28;20206;-62
2022/07/21 04:03:54;;;;;;;6.30;4.63;;;;;;;;;;5089428;28;20217;-61
2022/07/21 04:06:21;;;;;;;4.97;4.50;;;;;;;;;;5089340;28;20198;-61
2022/07/21 04:08:48;;;;;;;4.93;4.63;;;;;;;;;;5089921;28;20574;-62
2022/07/21 04:11:15;;;;;;;4.43;4.22;;;;;;;;;;5089592;28;20708;-61
2022/07/21 04:13:44;;;;;;;6.30;4.65;;;;;;;;;;5089619;28;20263;-61
2022/07/21 04:16:11;;;;;;;5.03;4.72;;;;;;;;;;5089259;28;20210;-61
2022/07/21 04:18:38;;;;;;;4.93;4.47;;;;;;;;;;5090103;28;20226;-61
2022/07/21 04:21:05;;;;;;;5.28;4.88;;;;;;;;;;5090011;28;20206;-63
2022/07/21 04:23:32;;;;;;;5.03;4.60;;;;;;;;;;5089665;28;20339;-61
2022/07/21 04:25:59;;;;;;;5.40;5.05;;;;;;;;;;5089260;28;20297;-61
2022/07/21 04:28:26;;;;;;;5.60;5.07;;;;;;;;;;5090086;28;20518;-61
2022/07/21 04:30:54;;;;;;;4.72;4.25;;;;;;;;;;5089997;28;20202;-61
2022/07/21 04:33:39;;;;;;;4.88;4.57;;;;;;;;;;5089937;28;20918;-61
2022/07/21 04:36:06;;;;;;;5.55;5.13;;;;;;;;;;5089829;28;20206;-62
2022/07/21 04:38:33;;;;;;;5.45;4.82;;;;;;;;;;5088754;28;20230;-62
2022/07/21 04:41:00;;;;;;;5.22;4.25;;;;;;;;;;5081162;28;20271;-62
2022/07/21 04:43:27;;;;;;;5.05;4.55;;;;;;;;;;5088401;28;20213;-62
2022/07/21 04:45:56;;;;;;;5.55;5.05;;;;;;;;;;5079851;28;20236;-62
2022/07/21 04:48:23;;;;;;;5.43;4.97;;;;;;;;;;5077637;28;20203;-61
2022/07/21 04:50:51;;;;;;;4.95;4.65;;;;;;;;;;5089818;28;20206;-63
2022/07/21 04:53:18;;;;;;;5.03;4.57;;;;;;;;;;5089357;28;20660;-62
2022/07/21 04:55:45;;;;;;;4.43;4.13;;;;;;;;;;5085829;28;20238;-62
2022/07/21 04:58:12;;;;;;;5.25;4.72;;;;;;;;;;5093812;28;20233;-63
2022/07/21 05:00:39;;;;;;;5.05;4.65;;;;;;;;;;5093712;28;20210;-62
2022/07/21 05:03:07;;;;;;;5.32;4.85;;;;;;;;;;5093388;28;20202;-63
2022/07/21 05:05:34;;;;;;;4.93;4.63;;;;;;;;;;5093255;28;20582;-64
2022/07/21 05:08:01;;;;;;;5.25;4.85;;;;;;;;;;5091191;28;20199;-64
2022/07/21 05:10:28;;;;;;;4.85;4.55;;;;;;;;;;5093395;28;20217;-63
2022/07/21 05:12:55;;;;;;;4.90;4.47;;;;;;;;;;5093264;28;20289;-63
2022/07/21 05:15:22;;;;;;;4.30;4.10;;;;;;;;;;5093347;28;20263;-63
2022/07/21 05:17:49;;;;;;;5.25;4.80;;;;;;;;;;5093113;28;20225;-63
2022/07/21 05:20:18;;;;;;;4.97;4.65;;;;;;;;;;5093421;28;20206;-63
2022/07/21 05:22:45;;;;;;;4.88;4.47;;;;;;;;;;5092211;28;20217;-64
2022/07/21 05:25:12;;;;;;;4.97;4.57;;;;;;;;;;5092961;28;20214;-64
2022/07/21 05:27:39;;;;;;;4.65;4.40;;;;;;;;;;5092953;28;20203;-64
2022/07/21 05:30:07;;;;;;;5.95;4.30;;;;;;;;;;5093014;28;20662;-62
2022/07/21 05:32:34;;;;;;;5.28;4.60;;;;;;;;;;5093195;28;20206;-62
2022/07/21 05:35:01;;;;;;;4.82;4.53;;;;;;;;;;5092874;28;20199;-62
2022/07/21 05:37:29;;;;;;;6.72;4.55;;;;;;;;;;5093053;28;20209;-62
2022/07/21 05:39:56;;;;;;;5.43;4.43;;;;;;;;;;5093083;28;20210;-63
2022/07/21 05:42:23;;;;;;;4.72;4.38;;;;;;;;;;5092499;28;20210;-61
2022/07/21 05:44:50;;;;;;;7.55;4.90;;;;;;;;;;5092821;28;20202;-64
2022/07/21 05:47:17;;;;;;;8.80;5.25;;;;;;;;;;5092201;28;20206;-65
2022/07/21 05:49:44;;;;;;;4.45;4.20;;;;;;;;;;5092651;28;20214;-63
2022/07/21 05:52:11;;;;;;;4.93;4.53;;;;;;;;;;5092846;28;20206;-63
2022/07/21 05:54:40;;;;;;;5.05;4.65;;;;;;;;;;5092105;28;20230;-63
2022/07/21 05:57:07;;;;;;;6.75;4.63;;;;;;;;;;5092199;28;20297;-63
2022/07/21 05:59:34;;;;;;;4.85;4.55;;;;;;;;;;5092630;28;20274;-63
2022/07/21 06:02:01;;;;;;;4.63;4.22;;;;;;;;;;5092653;28;20207;-64
2022/07/21 06:04:28;;;;;;;4.70;4.43;;;;;;;;;;5092278;28;20207;-63
2022/07/21 06:06:55;;;;;;;5.00;4.70;;;;;;;;;;5091558;28;20213;-64
2022/07/21 06:09:22;;;;;;;4.85;4.55;;;;;;;;;;5091691;28;20255;-65
2022/07/21 06:11:50;;;;;;;4.80;4.60;;;;;;;;;;5091859;28;20213;-63
2022/07/21 06:14:17;;;;;;;4.90;4.55;;;;;;;;;;5092147;28;20584;-64
2022/07/21 06:16:44;;;;;;;5.43;4.38;;;;;;;;;;5091824;28;20210;-64
2022/07/21 06:19:11;;;;;;;4.47;4.20;;;;;;;;;;5091742;28;20222;-64
2022/07/21 06:21:40;;;;;;;4.80;4.47;;;;;;;;;;5092084;28;20217;-65
2022/07/21 06:24:07;;;;;;;4.50;4.20;;;;;;;;;;5091949;28;20217;-65
2022/07/21 06:26:34;;;;;;;4.43;4.20;;;;;;;;;;5091043;28;20222;-65
2022/07/21 06:29:03;;;;;;;4.78;4.25;;;;;;;;;;5092134;28;20198;-65
2022/07/21 06:31:30;;;;;;;4.70;4.30;;;;;;;;;;5091949;28;20217;-65
2022/07/21 06:33:57;;;;;;;4.20;4.00;;;;;;;;;;5092031;28;20715;-65
2022/07/21 06:36:24;;;;;;;4.65;4.38;;;;;;;;;;5091293;28;20213;-62
2022/07/21 06:38:51;;;;;;;4.40;4.20;;;;;;;;;;5091736;28;20222;-63
2022/07/21 06:41:18;;;;;;;4.80;4.50;;;;;;;;;;5091380;28;20289;-65
2022/07/21 06:43:45;;;;;;;7.25;4.47;;;;;;;;;;5091021;28;20210;-63
2022/07/21 06:46:13;;;;;;;5.90;4.45;;;;;;;;;;5086539;28;20202;-64
2022/07/21 06:48:40;;;;;;;4.93;4.63;;;;;;;;;;5090359;28;20206;-64
2022/07/21 06:51:07;;;;;;;4.55;4.13;;;;;;;;;;5091503;28;20202;-64
2022/07/21 06:53:35;;;;;;;5.03;4.72;;;;;;;;;;5091010;28;20247;-64
2022/07/21 06:56:02;;;;;;;4.20;3.83;;;;;;;;;;5091097;28;20949;-65
2022/07/21 06:58:29;;;;;;;4.75;4.35;;;;;;;;;;5090403;28;20268;-64
2022/07/21 07:00:56;;;;;;;4.57;4.30;;;;;;;;;;5091342;28;20218;-65
2022/07/21 07:03:24;;;;;;;3.88;3.67;;;;;;;;;;5108959;28;20209;-64
2022/07/21 07:05:51;;;;;;;4.25;3.95;;;;;;;;;;5111412;28;20823;-64
2022/07/21 07:08:19;;;;;;;4.30;4.00;;;;;;;;;;5096024;28;20206;-64
2022/07/21 07:10:46;;;;;;;4.50;4.20;;;;;;;;;;5090932;28;20206;-64
2022/07/21 07:13:15;;;;;;;3.83;3.53;;;;;;;;;;5090924;28;20220;-63
2022/07/21 07:15:42;;;;;;;4.38;3.90;;;;;;;;;;5091008;28;20210;-63
2022/07/21 07:18:09;;;;;;;4.13;3.83;;;;;;;;;;5090778;28;20276;-63
2022/07/21 07:20:38;;;;;;;4.20;3.90;;;;;;;;;;5091012;28;20210;-63
2022/07/21 07:23:05;;;;;;;4.05;3.85;;;;;;;;;;5090825;28;20408;-63
2022/07/21 07:25:32;;;;;;;4.40;3.50;;;;;;;;;;5090914;28;20573;-64
2022/07/21 07:28:00;;;;;;;4.60;4.20;;;;;;;;;;5090051;28;20198;-63
2022/07/21 07:30:27;;;;;;;4.63;4.32;;;;;;;;;;5091550;28;20293;-63
2022/07/21 07:32:54;;;;;;;4.10;3.90;;;;;;;;;;5090381;28;20202;-64
2022/07/21 07:35:22;;;;;;;3.75;3.63;;;;;;;;;;5090330;28;20229;-64
2022/07/21 07:37:50;;;;;;;4.35;4.00;;;;;;;;;;5090136;28;20671;-64
2022/07/21 07:40:18;;;;;;;3.80;3.60;;;;;;;;;;5090595;28;20629;-64
2022/07/21 07:42:46;;;;;;;4.18;3.88;;;;;;;;;;5090368;28;20206;-64
2022/07/21 07:45:14;;;;;;;4.15;3.60;;;;;;;;;;5090441;28;20202;-64
2022/07/21 07:47:44;;;;;;;4.18;3.70;;;;;;;;;;5090168;28;20231;-67
2022/07/21 07:50:12;;;;;;;3.65;3.55;;;;;;;;;;5089847;28;20198;-65
2022/07/21 07:52:40;;;;;;;3.75;3.55;;;;;;;;;;5089580;28;20210;-65
2022/07/21 07:55:10;;;;;;;4.07;3.80;;;;;;;;;;5088563;28;20214;-64
2022/07/21 07:57:38;;;;;;;3.80;3.53;;;;;;;;;;5082964;28;20245;-62
2022/07/21 08:00:06;;;;;;;3.97;3.72;;;;;;;;;;5086787;28;20251;-62
2022/07/21 08:02:33;;;;;;;4.00;3.80;;;;;;;;;;5088741;28;20210;-62
2022/07/21 08:05:00;;;;;;;3.75;3.55;;;;;;;;;;5089041;28;20235;-62
2022/07/21 08:07:27;;;;;;;3.42;3.33;;;;;;;;;;5084603;28;20214;-63
2022/07/21 08:09:54;;;;;;;3.92;3.63;;;;;;;;;;5090409;28;20210;-63
2022/07/21 08:12:23;;;;;;;3.90;3.50;;;;;;;;;;5090137;28;20745;-64
2022/07/21 08:14:50;;;;;;;3.40;3.30;;;;;;;;;;5089105;28;20676;-63
2022/07/21 08:17:17;;;;;;;3.97;3.65;;;;;;;;;;5108380;28;20585;-62
2022/07/21 08:19:44;;;;;;;2.97;2.88;;;;;;;;;;5101488;28;20312;-62
2022/07/21 08:22:11;;;;;;;3.63;3.42;;;;;;;;;;5088033;28;20213;-63
2022/07/21 08:24:38;;;;;;;3.80;3.45;;;;;;;;;;5073800;28;20261;-64
2022/07/21 08:27:05;;;;;;;10.27;3.95;;;;;;;;;;5070007;28;20211;-61
2022/07/21 08:29:34;;;;;;;3.65;3.45;;;;;;;;;;5088566;28;20296;-66
2022/07/21 08:32:01;;;;;;;4.03;3.72;;;;;;;;;;5087973;28;20210;-65
2022/07/21 08:34:28;;;;;;;3.90;3.60;;;;;;;;;;5088135;28;20214;-65
2022/07/21 08:36:55;;;;;;;3.65;3.50;;;;;;;;;;5088691;28;20259;-66
2022/07/21 08:39:22;;;;;;;3.17;3.00;;;;;;;;;;5087714;28;20230;-65
2022/07/21 08:41:49;;;;;;;3.20;3.10;;;;;;;;;;5087972;28;20210;-65
2022/07/21 08:44:16;;;;;;;4.20;3.47;;;;;;;;;;5088612;28;20217;-66
2022/07/21 08:46:49;;;;;;;3.30;3.20;;;;;;;;;;5088526;28;20255;-62
2022/07/21 08:49:17;;;;;;;3.15;2.95;;;;;;;;;;5088785;28;20202;-62
2022/07/21 08:51:44;;;;;;;3.72;3.50;;;;;;;;;;5087896;28;20562;-63
2022/07/21 08:54:11;;;;;;;3.65;3.45;;;;;;;;;;5087204;28;20813;-62
2022/07/21 08:56:38;;;;;;;3.38;3.10;;;;;;;;;;5087922;28;20226;-62
2022/07/21 08:59:05;;;;;;;3.78;3.50;;;;;;;;;;5088327;28;20218;-61
2022/07/21 09:01:33;;;;;;;3.03;2.92;;;;;;;;;;5088094;28;20829;-62
2022/07/21 09:04:20;;;;;;;4.45;3.22;;;;;;;;;;5088453;28;20660;-62
2022/07/21 09:06:50;;;;;;;3.05;2.95;;;;;;;;;;5087312;28;20205;-62
2022/07/21 09:09:20;;;;;;;3.47;3.17;;;;;;;;;;5088331;28;20668;-61
2022/07/21 09:11:47;;;;;;;3.20;3.00;;;;;;;;;;5083127;28;20613;-62
2022/07/21 09:14:16;;;;;;;3.13;2.92;;;;;;;;;;5088427;28;20259;-62
2022/07/21 09:16:44;;;;;;;3.47;3.20;;;;;;;;;;5088333;28;20209;-61
2022/07/21 09:19:18;;;;;;;2.97;2.78;;;;;;;;;;5088394;28;20254;-61
2022/07/21 09:21:45;;;;;;;2.78;2.65;;;;;;;;;;5087832;28;20751;-62
2022/07/21 09:24:13;;;;;;;2.55;2.45;;;;;;;;;;5087836;28;20335;-61
2022/07/21 09:26:55;;;;;;;2.45;2.45;;;;;;;;;;5088085;28;20198;-61
2022/07/21 09:29:22;;;;;;;2.42;2.42;;;;;;;;;;5086028;28;20220;-62
2022/07/21 09:31:49;;;;;;;2.63;2.53;;;;;;;;;;5087537;28;20206;-61
2022/07/21 09:34:17;;;;;;;3.53;3.03;;;;;;;;;;5088080;28;20574;-60
2022/07/21 09:36:56;;;;;;;3.03;2.92;;;;;;;;;;5089105;28;20581;-61
2022/07/21 09:39:37;;;;;;;2.85;2.75;;;;;;;;;;5087281;28;20722;-61
2022/07/21 09:42:12;;;;;;;2.85;2.75;;;;;;;;;;5087361;28;20692;-61
2022/07/21 09:44:39;;;;;;;2.90;2.70;;;;;;;;;;5092121;28;20213;-60
2022/07/21 09:47:11;;;;;;;3.15;2.95;;;;;;;;;;5091623;28;20210;-59
2022/07/21 09:49:39;;;;;;;3.00;2.90;;;;;;;;;;5091435;28;20388;-59
2022/07/21 09:52:18;;;;;;;2.90;2.85;;;;;;;;;;5091174;28;20202;-59
2022/07/21 09:54:46;;;;;;;3.30;3.10;;;;;;;;;;5109987;28;20222;-60
2022/07/21 09:57:13;;;;;;;2.92;2.83;;;;;;;;;;5094494;28;20252;-61
2022/07/21 09:59:40;;;;;;;3.08;2.88;;;;;;;;;;5090684;28;20234;-60
2022/07/21 10:02:07;;;;;;;4.18;3.22;;;;;;;;;;5090430;28;20267;-61
2022/07/21 10:04:35;;;;;;;2.65;2.60;;;;;;;;;;5090673;28;20210;-60
2022/07/21 10:07:04;;;;;;;3.10;3.00;;;;;;;;;;5090731;28;20202;-62
2022/07/21 10:09:31;;;;;;;3.30;3.10;;;;;;;;;;5091092;28;20280;-62
2022/07/21 10:11:58;;;;;;;3.38;3.17;;;;;;;;;;5085333;28;20257;-61
2022/07/21 10:14:25;;;;;;;2.95;2.85;;;;;;;;;;5094702;28;20258;-61
2022/07/21 10:16:52;;;;;;;3.40;3.30;;;;;;;;;;5090206;28;20970;-61
2022/07/21 10:19:23;;;;;;;2.58;2.42;;;;;;;;;;5086151;28;20267;-61
2022/07/21 10:21:53;;;;;;;2.95;2.85;;;;;;;;;;5089892;28;20628;-62
2022/07/21 10:24:22;;;;;;;2.53;2.40;;;;;;;;;;5091010;28;20210;-62
2022/07/21 10:27:05;;;;;;;2.63;2.53;;;;;;;;;;5090518;28;20210;-62
2022/07/21 10:29:53;;;;;;;2.60;2.50;;;;;;;;;;5090712;28;20220;-61
2022/07/21 10:32:21;;;;;;;4.68;3.20;;;;;;;;;;5090426;28;20683;-61
2022/07/21 10:34:49;;;;;;;3.10;2.88;;;;;;;;;;5090917;28;20245;-61
2022/07/21 10:37:31;;;;;;;3.78;2.55;;;;;;;;;;5090345;28;20305;-61
2022/07/21 10:39:59;;;;;;;2.17;2.17;;;;;;;;;;5094351;28;20688;-62
2022/07/21 10:42:26;;;;;;;2.75;2.60;;;;;;;;;;5082978;28;20245;-62
2022/07/21 10:44:53;;;;;;;2.50;2.30;;;;;;;;;;5070639;28;20660;-62
2022/07/21 10:47:23;;;;;;;2.20;2.10;;;;;;;;;;5069762;28;20215;-62
2022/07/21 10:49:52;;;;;;;1.90;1.90;;;;;;;;;;5072869;28;20199;-62
2022/07/21 10:52:38;;;;;;;3.80;2.28;;;;;;;;;;5071714;28;20372;-62
2022/07/21 10:55:25;;;;;;;2.90;2.40;;;;;;;;;;5033339;28;20251;-59
2022/07/21 10:58:07;;;;;;;2.25;2.20;;;;;;;;;;5089875;28;20237;-61
2022/07/21 11:00:36;;;;;;;2.38;2.28;;;;;;;;;;5086440;28;20358;-62
2022/07/21 11:03:04;;;;;;;2.67;2.30;;;;;;;;;;5060881;28;20200;-59
2022/07/21 11:05:33;;;;;;;1.73;1.73;;;;;;;;;;5049569;28;20219;-61
2022/07/21 11:08:14;;;;;;;2.00;2.00;;;;;;;;;;5049973;28;20216;-60
2022/07/21 11:10:43;;;;;;;2.13;2.08;;;;;;;;;;5064545;28;20566;-61
2022/07/21 11:13:10;;;;;;;2.28;2.17;;;;;;;;;;5067991;28;20214;-61
2022/07/21 11:15:48;;;;;;;2.10;2.00;;;;;;;;;;5069044;28;21001;-61
2022/07/21 11:18:17;;;;;;;2.20;2.20;;;;;;;;;;5069534;28;20214;-61
2022/07/21 11:20:45;;;;;;;2.13;2.03;;;;;;;;;;5065359;28;20234;-60
2022/07/21 11:23:12;;;;;;;1.90;1.80;;;;;;;;;;5066675;28;20248;-63
2022/07/21 11:25:39;;;;;;;2.00;2.00;;;;;;;;;;5069977;28;20215;-62
2022/07/21 11:28:18;;;;;;;2.10;2.00;;;;;;;;;;5061155;28;20293;-63
2022/07/21 11:30:45;;;;;;;2.03;1.95;;;;;;;;;;5069822;28;20214;-62
2022/07/21 11:33:22;;;;;;;2.35;2.33;;;;;;;;;;5063093;28;20219;-63
2022/07/21 11:35:49;;;;;;;4.22;2.28;;;;;;;;;;5065087;28;20214;-62
2022/07/21 11:38:16;;;;;;;2.13;2.03;;;;;;;;;;5056168;28;20223;-63
2022/07/21 11:40:43;;;;;;;2.00;1.90;;;;;;;;;;5067628;28;20223;-65
2022/07/21 11:43:10;;;;;;;2.50;2.38;;;;;;;;;;5066100;28;21004;-62
2022/07/21 11:45:39;;;;;;;2.97;1.90;;;;;;;;;;5063671;28;20263;-62
2022/07/21 11:48:06;;;;;;;2.33;2.13;;;;;;;;;;5049157;28;20208;-62
2022/07/21 11:50:33;;;;;;;2.38;2.35;;;;;;;;;;5061115;28;20204;-62
2022/07/21 11:53:02;;;;;;;2.47;2.28;;;;;;;;;;5064294;28;20210;-62
2022/07/21 11:55:30;;;;;;;2.20;2.10;;;;;;;;;;5050136;28;20254;-63
2022/07/21 11:57:57;;;;;;;2.95;2.55;;;;;;;;;;5066740;28;20210;-65
2022/07/21 12:00:26;;;;;;;2.85;2.65;;;;;;;;;;5068572;28;20885;-64
2022/07/21 12:03:05;;;;;;;2.35;2.33;;;;;;;;;;5051843;28;20295;-63
2022/07/21 12:05:32;;;;;;;3.50;2.78;;;;;;;;;;5067822;28;20343;-64
2022/07/21 12:07:59;;;;;;;2.67;2.58;;;;;;;;;;5052757;28;20216;-65
2022/07/21 12:10:27;;;;;;;3.92;3.03;;;;;;;;;;5054638;28;20203;-64
2022/07/21 12:12:59;;;;;;;3.30;3.10;;;;;;;;;;5066318;28;20642;-65
2022/07/21 12:15:28;;;;;;;2.88;2.65;;;;;;;;;;5059726;28;20698;-64
2022/07/21 12:17:57;;;;;;;3.20;3.00;;;;;;;;;;5063184;28;20272;-64
2022/07/21 12:20:28;;;;;;;3.10;3.00;;;;;;;;;;5065434;28;20222;-65
2022/07/21 12:22:56;;;;;;;3.28;3.05;;;;;;;;;;5059210;28;20207;-64
2022/07/21 12:25:33;;;;;;;3.35;2.90;;;;;;;;;;5055790;28;20211;-64
2022/07/21 12:28:12;;;;;;;3.97;3.78;;;;;;;;;;5059070;28;20293;-64
2022/07/21 12:30:40;;;;;;;3.25;3.15;;;;;;;;;;5064073;28;20210;-65
2022/07/21 12:33:09;;;;;;;3.90;3.67;;;;;;;;;;5062298;28;20203;-63
2022/07/21 12:35:37;;;;;;;4.20;3.80;;;;;;;;;;5074837;28;20268;-63
2022/07/21 12:38:06;;;;;;;3.75;3.55;;;;;;;;;;5054745;28;20210;-64
2022/07/21 12:40:34;;;;;;;3.85;3.65;;;;;;;;;;5066488;28;20226;-64
2022/07/21 12:43:05;;;;;;;3.72;3.63;;;;;;;;;;5067623;28;20211;-64
2022/07/21 12:45:33;;;;;;;3.83;3.50;;;;;;;;;;5058015;28;20225;-64
2022/07/21 12:48:08;;;;;;;4.63;3.97;;;;;;;;;;5048111;28;20215;-63
2022/07/21 12:50:38;;;;;;;4.20;4.00;;;;;;;;;;5051811;28;20683;-62
2022/07/21 12:53:05;;;;;;;4.45;4.10;;;;;;;;;;5067122;28;20231;-62
2022/07/21 12:55:32;;;;;;;3.40;3.30;;;;;;;;;;5050515;28;20231;-63
2022/07/21 12:57:59;;;;;;;4.25;3.95;;;;;;;;;;5048121;28;20280;-63
2022/07/21 13:00:26;;;;;;;3.90;3.70;;;;;;;;;;5062797;28;20234;-62
2022/07/21 13:02:56;;;;;;;4.20;3.80;;;;;;;;;;5059837;28;20204;-62
2022/07/21 13:05:26;;;;;;;4.18;3.97;;;;;;;;;;5047127;28;20284;-62
2022/07/21 13:07:53;;;;;;;4.50;4.28;;;;;;;;;;5055703;28;20210;-62
2022/07/21 13:10:20;;;;;;;3.80;3.70;;;;;;;;;;5045614;28;20212;-62
2022/07/21 13:12:48;;;;;;;4.47;4.20;;;;;;;;;;5061262;28;20206;-63
2022/07/21 13:15:15;;;;;;;3.72;3.63;;;;;;;;;;5052725;28;20211;-62
2022/07/21 13:17:42;;;;;;;4.60;4.30;;;;;;;;;;5063681;28;20241;-62
2022/07/21 13:20:10;;;;;;;3.83;3.53;;;;;;;;;;5064357;28;20238;-62
2022/07/21 13:22:38;;;;;;;4.13;3.80;;;;;;;;;;5058891;28;20218;-63
2022/07/21 13:25:06;;;;;;;3.70;3.50;;;;;;;;;;5049755;28;20207;-62
2022/07/21 13:27:33;;;;;;;4.15;3.60;;;;;;;;;;5067681;28;20225;-63
2022/07/21 13:30:00;;;;;;;3.95;3.65;;;;;;;;;;5065665;28;20550;-62
2022/07/21 13:32:28;;;;;;;4.20;4.00;;;;;;;;;;5060928;28;20232;-61
2022/07/21 13:34:55;;;;;;;3.80;3.67;;;;;;;;;;5058244;28;20211;-64
2022/07/21 13:37:24;;;;;;;4.38;4.28;;;;;;;;;;5062478;28;20204;-62
2022/07/21 13:39:52;;;;;;;4.35;4.13;;;;;;;;;;5065947;28;20198;-63
2022/07/21 13:42:20;;;;;;;5.55;4.68;;;;;;;;;;5059619;28;20206;-63
2022/07/21 13:44:47;;;;;;;4.65;4.35;;;;;;;;;;5059017;28;20207;-64
2022/07/21 13:47:14;;;;;;;4.32;4.10;;;;;;;;;;5057661;28;20207;-64
2022/07/21 13:49:41;;;;;;;4.53;3.88;;;;;;;;;;5066857;28;20627;-63
2022/07/21 13:52:08;;;;;;;3.85;3.60;;;;;;;;;;5048497;28;20299;-63
2022/07/21 13:54:35;;;;;;;4.50;4.05;;;;;;;;;;5052372;28;20389;-63
2022/07/21 13:57:06;;;;;;;3.60;3.30;;;;;;;;;;5083746;28;20230;-64
2022/07/21 13:59:35;;;;;;;4.18;3.85;;;;;;;;;;5059452;28;20221;-63
2022/07/21 14:02:02;;;;;;;3.30;3.20;;;;;;;;;;5049961;28;20259;-63
2022/07/21 14:04:29;;;;;;;3.50;3.20;;;;;;;;;;5056057;28;20207;-63
2022/07/21 14:06:56;;;;;;;3.47;3.17;;;;;;;;;;5051336;28;20270;-63
2022/07/21 14:09:23;;;;;;;3.50;3.20;;;;;;;;;;5045820;28;20211;-63
2022/07/21 14:11:51;;;;;;;3.83;3.50;;;;;;;;;;5053966;28;20744;-61
2022/07/21 14:14:22;;;;;;;3.40;3.13;;;;;;;;;;5057549;28;20234;-62
2022/07/21 14:16:49;;;;;;;3.45;3.35;;;;;;;;;;5046381;28;20200;-62
2022/07/21 14:19:17;;;;;;;3.50;3.40;;;;;;;;;;5046251;28;20651;-62
2022/07/21 14:21:44;;;;;;;4.30;4.10;;;;;;;;;;5059554;28;20338;-62
2022/07/21 14:26:57;;;;;;;4.22;3.92;;;;;;;;;;5053903;28;20530;-61
2022/07/21 14:29:25;;;;;;;4.38;4.15;;;;;;;;;;5062284;28;20462;-62
2022/07/21 14:31:53;;;;;;;5.15;4.10;;;;;;;;;;5053869;28;20277;-63
2022/07/21 14:34:20;;;;;;;3.42;3.33;;;;;;;;;;5064673;28;20238;-63
2022/07/21 14:36:47;;;;;;;3.20;3.10;;;;;;;;;;5064764;28;20610;-62
2022/07/21 14:39:14;;;;;;;4.28;3.83;;;;;;;;;;5064197;28;20206;-63
2022/07/21 14:41:41;;;;;;;3.33;3.13;;;;;;;;;;5064820;28;20231;-62
2022/07/21 14:44:09;;;;;;;3.55;3.30;;;;;;;;;;5062886;28;20207;-62
2022/07/21 14:46:37;;;;;;;4.03;3.63;;;;;;;;;;5054920;28;20560;-61
2022/07/21 14:49:05;;;;;;;3.50;3.38;;;;;;;;;;5055856;28;20279;-62
2022/07/21 14:51:32;;;;;;;3.53;3.35;;;;;;;;;;5051917;28;20195;-62
2022/07/21 14:53:59;;;;;;;3.75;3.55;;;;;;;;;;5046780;28;20688;-62